Time;durP1;ratioP1;P1;durP2;ratioP2;P2;SDS_P1;SDS_P2;PMS_P1;PMS_P2;Temp;Humidity;BMP_temperature;BMP_pressure;BME280_temperature;BME280_humidity;BME280_pressure;Samples;Min_cycle;Max_cycle;Signal;HPM_P1;HPM_P2
2022/08/14 00:00:11;;;;;;;7.07;6.27;;;;;;;22.85;59.80;100422.13;693041;28;1176;-83
2022/08/14 00:00:32;;;;;;;6.93;6.00;;;;;;;22.84;59.97;100423.06;691474;28;4458;-84
2022/08/14 00:00:53;;;;;;;7.00;6.07;;;;;;;22.81;60.12;100424.09;692774;28;1255;-83
2022/08/14 00:01:14;;;;;;;6.68;6.00;;;;;;;22.81;59.88;100423.25;692573;28;1398;-83
2022/08/14 00:01:35;;;;;;;6.40;5.75;;;;;;;22.83;60.33;100426.69;695814;28;1239;-83
2022/08/14 00:01:56;;;;;;;8.48;6.55;;;;;;;22.86;60.57;100426.50;693358;28;1133;-83
2022/08/14 00:02:16;;;;;;;8.10;6.10;;;;;;;22.84;60.35;100437.25;690630;28;904;-83
2022/08/14 00:02:38;;;;;;;7.00;6.30;;;;;;;22.79;60.46;100421.53;690661;28;1135;-83
2022/08/14 00:02:58;;;;;;;7.88;6.25;;;;;;;22.78;60.60;100422.47;687322;28;1284;-84
2022/08/14 00:03:22;;;;;;;7.28;6.20;;;;;;;22.80;60.92;100430.38;687108;28;1257;-83
2022/08/14 00:03:43;;;;;;;7.03;6.25;;;;;;;22.81;60.49;100418.78;688116;28;4328;-83
2022/08/14 00:04:04;;;;;;;7.30;6.20;;;;;;;22.77;60.60;100423.44;692181;28;1515;-83
2022/08/14 00:04:24;;;;;;;6.82;6.13;;;;;;;22.74;60.86;100412.97;689665;28;1179;-83
2022/08/14 00:04:45;;;;;;;7.05;6.32;;;;;;;22.82;60.13;100419.63;689251;28;1215;-83
2022/08/14 00:05:12;;;;;;;7.20;6.50;;;;;;;22.77;60.25;100418.09;688846;28;1116;-83
2022/08/14 00:05:33;;;;;;;6.80;6.10;;;;;;;22.74;60.86;100423.63;689560;28;1927;-83
2022/08/14 00:05:55;;;;;;;9.38;6.22;;;;;;;22.74;60.93;100422.78;686169;28;1329;-84
2022/08/14 00:06:15;;;;;;;11.43;6.25;;;;;;;22.74;60.63;100436.94;691778;28;1381;-84
2022/08/14 00:06:36;;;;;;;9.68;6.32;;;;;;;22.73;60.87;100421.91;692066;28;4331;-84
2022/08/14 00:06:57;;;;;;;7.85;6.03;;;;;;;22.71;61.40;100415.81;689619;28;1294;-83
2022/08/14 00:07:18;;;;;;;7.43;6.20;;;;;;;22.68;61.36;100415.13;693052;28;1159;-84
2022/08/14 00:07:39;;;;;;;6.95;6.25;;;;;;;22.68;61.80;100416.00;687813;28;1289;-84
2022/08/14 00:07:59;;;;;;;7.30;6.10;;;;;;;22.69;60.61;100422.19;692928;28;1068;-83
2022/08/14 00:08:20;;;;;;;7.03;6.30;;;;;;;22.67;61.44;100418.75;692833;28;1083;-84
2022/08/14 00:08:41;;;;;;;7.45;6.22;;;;;;;22.71;60.70;100413.16;690034;28;1214;-84
2022/08/14 00:09:02;;;;;;;6.90;6.10;;;;;;;22.71;61.29;100431.78;687676;28;1299;-84
2022/08/14 00:09:23;;;;;;;6.90;6.20;;;;;;;22.69;61.76;100424.84;689530;28;1466;-83
2022/08/14 00:09:45;;;;;;;7.10;6.40;;;;;;;22.72;61.09;100425.53;684125;28;4384;-84
2022/08/14 00:10:09;;;;;;;7.38;6.57;;;;;;;22.71;61.36;100426.47;690654;28;1243;-84
2022/08/14 00:10:30;;;;;;;7.38;6.45;;;;;;;22.74;61.38;100420.09;696177;28;986;-83
2022/08/14 00:10:51;;;;;;;7.35;6.40;;;;;;;22.70;62.03;100410.56;693190;28;1515;-84
2022/08/14 00:11:12;;;;;;;7.30;6.60;;;;;;;22.71;61.91;100418.47;693078;28;1357;-83
2022/08/14 00:11:33;;;;;;;7.50;6.80;;;;;;;22.69;61.75;100419.50;689904;28;1195;-85
2022/08/14 00:11:55;;;;;;;7.30;6.60;;;;;;;22.73;61.67;100435.22;687645;28;1667;-83
2022/08/14 00:12:15;;;;;;;7.43;6.57;;;;;;;22.74;61.34;100410.28;688545;28;1202;-84
2022/08/14 00:12:39;;;;;;;7.17;6.40;;;;;;;22.72;61.90;100406.88;693783;28;5058;-84
2022/08/14 00:13:00;;;;;;;7.57;6.63;;;;;;;22.66;62.40;100425.03;694094;28;1216;-84
2022/08/14 00:13:23;;;;;;;7.75;6.47;;;;;;;22.67;62.82;100410.78;692997;28;1283;-83
2022/08/14 00:13:46;;;;;;;7.47;6.70;;;;;;;22.66;61.85;100415.22;692719;28;1400;-85
2022/08/14 00:14:07;;;;;;;7.03;6.43;;;;;;;22.66;61.75;100412.56;690312;28;1290;-83
2022/08/14 00:14:28;;;;;;;8.55;6.80;;;;;;;22.70;61.71;100405.25;690455;28;1300;-83
2022/08/14 00:14:48;;;;;;;9.63;6.77;;;;;;;22.69;62.18;100403.53;689894;28;1224;-84
2022/08/14 00:15:29;;;;;;;8.30;6.65;;;;;;;22.67;62.15;100406.28;690506;28;1280;-83
2022/08/14 00:15:50;;;;;;;6.97;6.38;;;;;;;22.67;61.91;100408.94;688998;28;4850;-83
2022/08/14 00:16:13;;;;;;;7.13;6.43;;;;;;;22.66;61.53;100403.72;690833;28;1423;-83
2022/08/14 00:16:34;;;;;;;7.10;6.40;;;;;;;22.63;62.25;100404.75;690187;28;1380;-84
2022/08/14 00:16:55;;;;;;;7.15;6.45;;;;;;;22.68;62.46;100408.00;691718;28;1402;-83
2022/08/14 00:17:15;;;;;;;7.00;6.30;;;;;;;22.66;62.49;100399.22;688000;28;1161;-83
2022/08/14 00:17:37;;;;;;;7.10;6.40;;;;;;;22.66;62.35;100401.06;689032;28;1421;-86
2022/08/14 00:17:58;;;;;;;7.57;6.63;;;;;;;22.64;62.67;100401.16;685867;28;1355;-83
2022/08/14 00:18:22;;;;;;;7.75;6.90;;;;;;;22.66;62.44;100403.72;686392;28;1040;-86
2022/08/14 00:18:42;;;;;;;7.53;6.60;;;;;;;22.66;62.06;100412.56;685342;28;4280;-84
2022/08/14 00:19:04;;;;;;;7.17;6.43;;;;;;;22.68;62.58;100408.00;687218;28;1073;-85
2022/08/14 00:19:24;;;;;;;7.78;6.85;;;;;;;22.72;62.42;100395.34;687079;28;1306;-84
2022/08/14 00:19:45;;;;;;;8.47;6.60;;;;;;;22.72;62.22;100409.53;690578;28;1302;-83
2022/08/14 00:20:07;;;;;;;8.13;6.43;;;;;;;22.71;62.95;100399.81;692443;28;1314;-83
2022/08/14 00:20:31;;;;;;;7.20;6.43;;;;;;;22.68;62.00;100412.47;690057;28;1240;-86
2022/08/14 00:20:52;;;;;;;7.25;6.55;;;;;;;22.71;62.74;100402.50;689348;28;1339;-86
2022/08/14 00:21:13;;;;;;;7.75;6.80;;;;;;;22.68;62.53;100397.34;687764;28;1296;-87
2022/08/14 00:21:35;;;;;;;7.50;6.72;;;;;;;22.67;62.18;100398.28;689132;28;4285;-85
2022/08/14 00:21:56;;;;;;;7.65;6.65;;;;;;;22.71;62.65;100401.66;692491;28;1363;-83
2022/08/14 00:22:17;;;;;;;7.87;6.70;;;;;;;22.68;62.41;100397.34;691879;28;3259;-83
2022/08/14 00:22:38;;;;;;;7.45;6.75;;;;;;;22.70;62.75;100400.75;691614;28;1312;-84
2022/08/14 00:22:59;;;;;;;7.30;6.60;;;;;;;22.69;62.84;100404.38;688353;28;1208;-83
2022/08/14 00:23:20;;;;;;;7.50;6.70;;;;;;;22.66;62.60;100403.72;689037;28;1296;-84
2022/08/14 00:23:42;;;;;;;8.02;6.85;;;;;;;22.69;62.77;100404.38;686680;28;1203;-84
2022/08/14 00:24:03;;;;;;;7.70;6.68;;;;;;;22.66;62.78;100401.91;686962;28;1635;-83
2022/08/14 00:24:23;;;;;;;7.57;6.63;;;;;;;22.63;62.55;100399.44;689616;28;1356;-83
2022/08/14 00:24:44;;;;;;;7.22;6.50;;;;;;;22.62;63.57;100403.03;688918;28;4297;-84
2022/08/14 00:25:07;;;;;;;7.40;6.65;;;;;;;22.67;63.21;100392.13;687838;28;1218;-84
2022/08/14 00:25:28;;;;;;;7.75;6.68;;;;;;;22.64;62.45;100406.47;688806;28;1247;-83
2022/08/14 00:25:53;;;;;;;7.10;6.40;;;;;;;22.61;63.08;100396.84;687732;28;1922;-84
2022/08/14 00:26:14;;;;;;;7.50;6.68;;;;;;;22.57;63.77;100399.81;691947;28;1288;-84
2022/08/14 00:26:35;;;;;;;7.50;6.80;;;;;;;22.56;63.91;100409.59;683752;28;1377;-84
2022/08/14 00:26:57;;;;;;;7.57;6.88;;;;;;;22.62;64.05;100400.38;687286;28;1161;-84
2022/08/14 00:27:21;;;;;;;7.32;6.63;;;;;;;22.58;63.76;100401.50;690730;28;1360;-85
2022/08/14 00:27:41;;;;;;;7.30;6.60;;;;;;;22.56;63.21;100404.25;689232;28;4280;-85
2022/08/14 00:28:03;;;;;;;8.43;7.63;;;;;;;22.51;64.19;100406.31;692225;28;1342;-83
2022/08/14 00:28:26;;;;;;;7.50;6.80;;;;;;;22.57;63.62;100400.66;688693;28;1315;-83
2022/08/14 00:28:47;;;;;;;7.40;6.60;;;;;;;22.59;62.87;100396.06;689843;28;1255;-84
2022/08/14 00:29:07;;;;;;;7.82;7.03;;;;;;;22.57;63.69;100397.97;689553;28;1252;-84
2022/08/14 00:29:30;;;;;;;7.77;6.70;;;;;;;22.56;63.73;100398.06;686528;28;1190;-83
2022/08/14 00:29:50;;;;;;;8.40;6.43;;;;;;;22.61;63.30;100402.19;686953;28;1199;-83
2022/08/14 00:30:13;;;;;;;8.17;6.90;;;;;;;22.60;63.48;100399.63;687458;28;1321;-85
2022/08/14 00:30:33;;;;;;;7.63;6.93;;;;;;;22.59;63.35;100409.38;686665;28;4582;-83
2022/08/14 00:30:56;;;;;;;7.77;6.97;;;;;;;22.60;63.49;100392.47;689853;28;1158;-83
2022/08/14 00:31:21;;;;;;;7.43;6.72;;;;;;;22.63;63.89;100407.41;691126;28;1162;-84
2022/08/14 00:31:41;;;;;;;7.25;6.55;;;;;;;22.61;63.14;100418.16;692748;28;1267;-86
2022/08/14 00:32:03;;;;;;;7.30;6.60;;;;;;;22.61;63.48;100417.31;692329;28;1152;-84
2022/08/14 00:32:23;;;;;;;7.78;6.90;;;;;;;22.58;63.66;100393.50;693674;28;1317;-84
2022/08/14 00:32:44;;;;;;;7.75;6.90;;;;;;;22.56;64.08;100393.59;689604;28;1341;-84
2022/08/14 00:33:06;;;;;;;7.50;6.78;;;;;;;22.61;63.74;100388.88;691930;28;1459;-83
2022/08/14 00:33:28;;;;;;;7.72;6.60;;;;;;;22.60;63.97;100402.28;686375;28;1221;-84
2022/08/14 00:33:49;;;;;;;7.38;6.68;;;;;;;22.59;63.71;100397.88;686477;28;4325;-86
2022/08/14 00:34:10;;;;;;;7.60;6.90;;;;;;;22.55;64.29;100391.88;686813;28;1378;-84
2022/08/14 00:34:30;;;;;;;7.82;6.80;;;;;;;22.52;63.84;100389.41;684913;28;1159;-83
2022/08/14 00:34:51;;;;;;;8.53;7.00;;;;;;;22.51;64.01;100392.16;686577;28;1144;-85
2022/08/14 00:35:13;;;;;;;8.27;7.15;;;;;;;22.48;63.98;100390.53;689212;28;1426;-83
2022/08/14 00:35:34;;;;;;;7.47;6.78;;;;;;;22.50;63.89;100390.44;692323;28;1354;-83
2022/08/14 00:35:55;;;;;;;7.82;6.50;;;;;;;22.51;64.12;100389.50;692077;28;1271;-86
2022/08/14 00:36:15;;;;;;;7.70;6.90;;;;;;;22.55;63.74;100381.22;692445;28;1275;-86
2022/08/14 00:36:36;;;;;;;7.95;7.07;;;;;;;22.55;64.13;100391.88;685175;28;4348;-83
2022/08/14 00:36:57;;;;;;;7.43;6.63;;;;;;;22.57;63.54;100405.13;688971;28;1356;-85
2022/08/14 00:37:18;;;;;;;7.40;6.70;;;;;;;22.53;63.90;100387.63;688837;28;1144;-84
2022/08/14 00:37:41;;;;;;;7.45;6.75;;;;;;;22.52;63.68;100391.22;689373;28;1133;-85
2022/08/14 00:38:02;;;;;;;7.63;6.82;;;;;;;22.50;63.49;100393.09;686706;28;1337;-84
2022/08/14 00:38:23;;;;;;;7.43;6.63;;;;;;;22.48;64.25;100395.84;690775;28;1531;-84
2022/08/14 00:38:46;;;;;;;7.82;7.13;;;;;;;22.44;64.81;100405.84;686284;28;1368;-84
2022/08/14 00:39:07;;;;;;;7.97;6.90;;;;;;;22.48;64.07;100398.53;689175;28;1196;-84
2022/08/14 00:39:28;;;;;;;7.88;6.90;;;;;;;22.49;64.31;100388.75;689225;28;1229;-84
2022/08/14 00:39:49;;;;;;;7.60;6.90;;;;;;;22.49;64.52;100386.09;688707;28;4318;-86
2022/08/14 00:40:13;;;;;;;7.60;6.90;;;;;;;22.49;64.28;100386.94;691919;28;1261;-84
2022/08/14 00:40:34;;;;;;;7.97;6.90;;;;;;;22.49;63.94;100388.75;694403;28;1220;-83
2022/08/14 00:40:54;;;;;;;7.53;6.73;;;;;;;22.47;64.03;100383.47;693920;28;1307;-84
2022/08/14 00:41:15;;;;;;;7.20;6.50;;;;;;;22.48;63.48;100395.00;691649;28;1288;-84
2022/08/14 00:41:36;;;;;;;7.77;6.90;;;;;;;22.46;63.99;100379.13;692314;28;1464;-84
2022/08/14 00:41:57;;;;;;;8.02;6.93;;;;;;;22.47;64.25;100395.94;689867;28;1338;-84
2022/08/14 00:42:21;;;;;;;7.70;6.90;;;;;;;22.50;64.42;100393.09;692759;28;1200;-84
2022/08/14 00:42:42;;;;;;;7.90;7.10;;;;;;;22.48;65.03;100384.34;688454;28;4560;-84
2022/08/14 00:43:03;;;;;;;8.05;7.25;;;;;;;22.45;64.67;100380.91;692767;28;1333;-85
2022/08/14 00:43:24;;;;;;;7.63;6.93;;;;;;;22.47;64.48;100387.97;691777;28;1222;-83
2022/08/14 00:43:45;;;;;;;7.78;6.97;;;;;;;22.45;64.16;100378.25;690668;28;1206;-84
2022/08/14 00:44:06;;;;;;;7.70;6.90;;;;;;;22.47;64.62;100387.97;691685;28;1530;-85
2022/08/14 00:44:29;;;;;;;7.80;7.00;;;;;;;22.46;65.02;100376.47;691847;28;1016;-85
2022/08/14 00:44:50;;;;;;;7.90;7.10;;;;;;;22.47;65.51;100382.63;690332;28;5084;-84
2022/08/14 00:45:13;;;;;;;7.45;6.75;;;;;;;22.46;64.64;100384.44;694594;28;1263;-83
2022/08/14 00:45:35;;;;;;;7.90;7.10;;;;;;;22.44;65.29;100383.66;691084;28;4303;-86
2022/08/14 00:45:55;;;;;;;7.43;6.72;;;;;;;22.49;65.43;100386.09;689309;28;1249;-85
2022/08/14 00:46:16;;;;;;;7.63;6.82;;;;;;;22.49;65.27;100386.94;686605;28;1228;-85
2022/08/14 00:46:37;;;;;;;7.70;6.97;;;;;;;22.45;65.91;100380.91;682007;28;1298;-86
2022/08/14 00:47:00;;;;;;;8.20;7.40;;;;;;;22.43;65.02;100382.81;686523;28;1363;-85
2022/08/14 00:47:23;;;;;;;7.97;7.18;;;;;;;22.44;64.88;100381.00;691314;28;1278;-84
2022/08/14 00:47:47;;;;;;;8.00;7.28;;;;;;;22.43;64.86;100382.81;691231;28;1238;-85
2022/08/14 00:48:09;;;;;;;7.97;7.07;;;;;;;22.43;64.45;100379.28;691649;28;1543;-87
2022/08/14 00:48:30;;;;;;;7.65;6.95;;;;;;;22.42;65.28;100383.75;688759;28;4302;-85
2022/08/14 00:48:51;;;;;;;7.70;6.90;;;;;;;22.43;65.11;100377.50;687597;28;1389;-85
2022/08/14 00:49:11;;;;;;;7.90;7.10;;;;;;;22.43;65.25;100377.50;685779;28;1208;-84
2022/08/14 00:49:32;;;;;;;8.07;7.30;;;;;;;22.45;65.22;100372.91;687962;28;1249;-84
2022/08/14 00:49:56;;;;;;;7.97;7.10;;;;;;;22.47;65.28;100382.63;689321;28;1227;-83
2022/08/14 00:50:19;;;;;;;9.25;6.75;;;;;;;22.45;64.65;100372.91;689219;28;1208;-84
2022/08/14 00:50:40;;;;;;;9.20;6.80;;;;;;;22.44;65.01;100387.22;691090;28;1064;-85
2022/08/14 00:51:01;;;;;;;7.80;7.00;;;;;;;22.43;65.47;100382.81;692503;28;1237;-84
2022/08/14 00:51:22;;;;;;;7.97;7.18;;;;;;;22.45;65.13;100383.56;690411;28;1000;-85
2022/08/14 00:51:44;;;;;;;8.13;7.00;;;;;;;22.44;65.72;100378.34;692150;28;4318;-86
2022/08/14 00:52:05;;;;;;;7.93;7.13;;;;;;;22.42;65.33;100370.44;691485;28;1240;-84
2022/08/14 00:52:27;;;;;;;7.85;7.05;;;;;;;22.48;66.18;100379.03;688654;28;1318;-85
2022/08/14 00:52:51;;;;;;;8.13;7.32;;;;;;;22.45;66.42;100372.06;691763;28;1236;-87
2022/08/14 00:53:12;;;;;;;8.85;7.35;;;;;;;22.40;65.80;100377.69;692046;28;1295;-87
2022/08/14 00:53:32;;;;;;;8.15;7.35;;;;;;;22.38;65.55;100368.91;692052;28;1180;-83
2022/08/14 00:53:53;;;;;;;7.93;7.10;;;;;;;22.38;66.29;100384.88;692233;28;1026;-84
2022/08/14 00:54:18;;;;;;;7.57;6.88;;;;;;;22.38;65.51;100384.03;691635;28;1371;-84
2022/08/14 00:54:40;;;;;;;7.93;7.13;;;;;;;22.34;66.00;100375.38;691746;28;4294;-84
2022/08/14 00:55:01;;;;;;;7.65;6.85;;;;;;;22.42;65.87;100386.41;692120;28;1318;-84
2022/08/14 00:55:23;;;;;;;7.70;6.95;;;;;;;22.42;65.34;100375.78;689047;28;1399;-86
2022/08/14 00:55:46;;;;;;;7.95;7.18;;;;;;;22.44;65.68;100373.91;689280;28;1228;-85
2022/08/14 00:56:07;;;;;;;8.05;7.25;;;;;;;22.44;65.59;100381.88;691232;28;1164;-84
2022/08/14 00:56:28;;;;;;;7.80;7.00;;;;;;;22.48;65.35;100385.19;691565;28;1331;-85
2022/08/14 00:56:51;;;;;;;8.10;7.40;;;;;;;22.49;65.85;100380.75;688761;28;1264;-84
2022/08/14 00:57:12;;;;;;;8.10;7.32;;;;;;;22.53;65.58;100371.63;687997;28;1340;-86
2022/08/14 00:57:34;;;;;;;7.83;7.13;;;;;;;22.52;65.81;100375.22;690094;28;4286;-84
2022/08/14 00:58:36;;;;;;;8.32;6.85;;;;;;;22.45;66.04;100372.91;691653;28;1275;-84
2022/08/14 00:58:58;;;;;;;8.40;7.40;;;;;;;22.43;65.99;100373.94;692417;28;3162;-84
2022/08/14 00:59:19;;;;;;;8.18;7.38;;;;;;;22.42;66.25;100375.78;690769;28;2472;-85
2022/08/14 00:59:40;;;;;;;8.13;7.28;;;;;;;22.46;66.36;100376.47;690991;28;1415;-85
2022/08/14 01:00:02;;;;;;;8.20;7.40;;;;;;;22.48;66.40;100373.69;691286;28;1238;-86
2022/08/14 01:00:23;;;;;;;8.50;7.43;;;;;;;22.44;65.26;100373.91;691949;28;1648;-83
2022/08/14 01:00:47;;;;;;;8.07;7.30;;;;;;;22.42;66.33;100362.47;691442;28;4305;-85
2022/08/14 01:01:10;;;;;;;8.05;7.25;;;;;;;22.41;65.85;100368.72;690340;28;1257;-84
2022/08/14 01:01:32;;;;;;;7.82;7.00;;;;;;;22.38;65.53;100368.91;689074;28;1219;-85
2022/08/14 01:01:59;;;;;;;8.60;7.33;;;;;;;22.38;66.13;100368.91;683553;28;1272;-84
2022/08/14 01:02:26;;;;;;;7.65;6.90;;;;;;;22.38;65.90;100368.06;685578;28;1319;-85
2022/08/14 01:02:46;;;;;;;8.18;7.30;;;;;;;22.33;66.14;100376.28;691341;28;1159;-86
2022/08/14 01:03:07;;;;;;;8.18;7.28;;;;;;;22.32;66.40;100368.38;691834;28;1297;-85
2022/08/14 01:03:28;;;;;;;8.30;7.50;;;;;;;22.32;66.78;100366.59;689655;28;1262;-86
2022/08/14 01:03:49;;;;;;;8.25;7.45;;;;;;;22.29;67.24;100358.75;685123;28;4824;-84
2022/08/14 01:04:10;;;;;;;8.48;7.57;;;;;;;22.27;67.34;100360.66;682593;28;1153;-85
2022/08/14 01:04:32;;;;;;;8.25;7.45;;;;;;;22.27;67.33;100356.19;683279;28;1061;-83
2022/08/14 01:05:06;;;;;;;8.02;7.25;;;;;;;22.28;67.52;100363.25;689028;28;1387;-85
2022/08/14 01:05:28;;;;;;;9.00;7.30;;;;;;;22.29;67.03;100356.09;690884;28;1073;-86
2022/08/14 01:05:50;;;;;;;8.23;7.43;;;;;;;22.25;67.30;100357.22;694189;28;1997;-86
2022/08/14 01:06:15;;;;;;;8.40;7.53;;;;;;;22.27;67.66;100360.66;691873;28;1312;-84
2022/08/14 01:06:36;;;;;;;7.88;7.07;;;;;;;22.24;67.66;100355.53;689619;28;4314;-84
2022/08/14 01:06:57;;;;;;;8.05;7.07;;;;;;;22.29;67.79;100358.75;689110;28;1155;-86
2022/08/14 01:07:19;;;;;;;9.00;7.40;;;;;;;22.27;67.25;100356.19;692812;28;1751;-85
2022/08/14 01:07:40;;;;;;;8.10;7.30;;;;;;;22.31;67.25;100361.34;689392;28;1303;-85
2022/08/14 01:08:01;;;;;;;8.15;7.35;;;;;;;22.32;67.49;100357.72;688433;28;1172;-84
2022/08/14 01:08:25;;;;;;;7.80;7.10;;;;;;;22.35;66.90;100352.28;690831;28;1095;-84
2022/08/14 01:08:46;;;;;;;7.70;6.90;;;;;;;22.35;66.91;100347.78;686284;28;1353;-85
2022/08/14 01:09:06;;;;;;;8.15;7.35;;;;;;;22.31;67.09;100343.56;688945;28;1386;-84
2022/08/14 01:09:28;;;;;;;8.40;7.60;;;;;;;22.28;67.25;100351.75;687953;28;1195;-86
2022/08/14 01:09:53;;;;;;;8.18;7.40;;;;;;;22.26;67.12;100350.97;686039;28;4801;-85
2022/08/14 01:10:14;;;;;;;8.25;7.45;;;;;;;22.22;68.11;100360.06;686750;28;1221;-86
2022/08/14 01:10:50;;;;;;;8.57;7.50;;;;;;;22.18;68.37;100351.44;686543;28;1120;-86
2022/08/14 01:11:14;;;;;;;8.43;7.60;;;;;;;22.24;67.71;100345.72;687054;28;1012;-84
2022/08/14 01:11:37;;;;;;;8.48;7.57;;;;;;;22.27;67.85;100350.88;691032;28;1521;-84
2022/08/14 01:11:58;;;;;;;8.15;7.35;;;;;;;22.26;67.72;100345.63;690521;28;1201;-84
2022/08/14 01:12:20;;;;;;;8.50;7.53;;;;;;;22.24;67.79;100344.88;690154;28;1367;-84
2022/08/14 01:12:40;;;;;;;8.40;7.50;;;;;;;22.32;66.97;100350.63;687277;28;4272;-83
2022/08/14 01:13:01;;;;;;;8.40;7.50;;;;;;;22.31;67.15;100342.72;686817;28;1108;-84
2022/08/14 01:13:31;;;;;;;9.13;7.23;;;;;;;22.28;67.39;100346.41;686097;28;1037;-84
2022/08/14 01:13:58;;;;;;;8.23;7.32;;;;;;;22.25;67.63;100349.22;688247;28;1038;-83
2022/08/14 01:14:19;;;;;;;8.38;7.53;;;;;;;22.23;67.76;100351.16;688796;28;1194;-84
2022/08/14 01:14:40;;;;;;;8.68;7.88;;;;;;;22.23;68.12;100351.16;690985;28;1243;-85
2022/08/14 01:15:01;;;;;;;8.50;7.70;;;;;;;22.23;68.23;100344.00;691903;28;1302;-84
2022/08/14 01:15:21;;;;;;;8.95;7.57;;;;;;;22.27;68.03;100353.53;691665;28;1187;-84
2022/08/14 01:15:45;;;;;;;8.52;7.38;;;;;;;22.31;67.84;100334.72;694034;28;4300;-85
2022/08/14 01:16:09;;;;;;;7.95;7.15;;;;;;;22.26;67.83;100338.53;691049;28;963;-84
2022/08/14 01:16:30;;;;;;;8.48;7.53;;;;;;;22.26;67.46;100342.97;694178;28;1408;-85
2022/08/14 01:16:50;;;;;;;8.87;7.80;;;;;;;22.27;68.00;100344.69;691512;28;1286;-84
2022/08/14 01:17:12;;;;;;;8.43;7.53;;;;;;;22.31;67.10;100337.41;687174;28;1158;-86
2022/08/14 01:21:05;;;;;;;8.38;7.50;;;;;;;22.30;67.99;100341.00;689723;28;1403;-85
2022/08/14 01:21:45;;;;;;;8.95;7.60;;;;;;;22.28;68.07;100341.09;691981;28;1306;-83
2022/08/14 01:22:06;;;;;;;8.43;7.38;;;;;;;22.31;68.04;100334.72;690222;28;5024;-85
2022/08/14 01:22:26;;;;;;;8.82;7.70;;;;;;;22.31;67.25;100334.72;690848;28;1291;-83
2022/08/14 01:22:48;;;;;;;8.77;7.73;;;;;;;22.34;67.60;100337.25;694883;28;1159;-84
2022/08/14 01:23:12;;;;;;;8.40;7.60;;;;;;;22.32;68.82;100337.31;691840;28;1242;-84
2022/08/14 01:23:35;;;;;;;8.88;7.80;;;;;;;22.33;67.80;100332.81;690499;28;1100;-86
2022/08/14 01:23:56;;;;;;;8.40;7.60;;;;;;;22.33;67.80;100328.34;688842;28;993;-88
2022/08/14 01:24:17;;;;;;;8.30;7.50;;;;;;;22.30;67.90;100333.84;686804;28;1193;-85
2022/08/14 01:24:37;;;;;;;8.77;7.80;;;;;;;22.34;67.80;100334.56;688608;28;4293;-85
2022/08/14 01:24:58;;;;;;;8.70;7.80;;;;;;;22.33;67.89;100354.13;689275;28;1084;-84
2022/08/14 01:25:19;;;;;;;8.57;7.68;;;;;;;22.31;67.41;100334.72;688955;28;1301;-86
2022/08/14 01:25:40;;;;;;;8.02;7.22;;;;;;;22.30;67.97;100347.16;692009;28;1973;-86
2022/08/14 01:26:02;;;;;;;8.32;7.53;;;;;;;22.34;67.89;100334.56;691164;28;1238;-85
2022/08/14 01:26:24;;;;;;;8.40;7.28;;;;;;;22.32;68.25;100334.63;692054;28;1314;-86
2022/08/14 01:26:45;;;;;;;8.98;7.60;;;;;;;22.31;67.71;100332.91;691647;28;1328;-84
2022/08/14 01:27:05;;;;;;;8.70;7.47;;;;;;;22.27;67.79;100329.56;685979;28;1214;-84
2022/08/14 01:27:27;;;;;;;8.57;7.78;;;;;;;22.31;68.01;100326.75;686075;28;1135;-84
2022/08/14 01:27:49;;;;;;;8.82;7.93;;;;;;;22.30;67.23;100328.53;688558;28;4373;-86
2022/08/14 01:28:09;;;;;;;10.05;7.80;;;;;;;22.34;68.14;100337.25;691298;28;1029;-87
2022/08/14 01:28:34;;;;;;;8.63;7.60;;;;;;;22.44;67.94;100330.41;689242;28;1251;-84
2022/08/14 01:28:58;;;;;;;8.20;7.40;;;;;;;22.43;67.59;100320.69;689258;28;999;-83
2022/08/14 01:29:19;;;;;;;8.35;7.45;;;;;;;22.40;67.49;100324.41;688355;28;1435;-84
2022/08/14 01:29:40;;;;;;;8.50;7.65;;;;;;;22.34;68.44;100332.75;690570;28;1322;-84
2022/08/14 01:30:00;;;;;;;8.57;7.70;;;;;;;22.40;68.42;100327.09;687810;28;1124;-84
2022/08/14 01:30:22;;;;;;;8.90;8.00;;;;;;;22.38;68.09;100330.78;689998;28;1203;-83
2022/08/14 01:30:43;;;;;;;8.48;7.68;;;;;;;22.32;67.39;100326.66;687417;28;4263;-85
2022/08/14 01:31:07;;;;;;;8.00;7.20;;;;;;;22.36;67.99;100333.53;689804;28;1210;-86
2022/08/14 01:31:33;;;;;;;8.38;7.53;;;;;;;22.35;68.05;100326.50;691110;28;1396;-86
2022/08/14 01:31:53;;;;;;;8.70;7.80;;;;;;;22.31;68.29;100330.25;687330;28;1302;-87
2022/08/14 01:32:16;;;;;;;8.57;7.68;;;;;;;22.31;68.44;100322.25;685541;28;1212;-86
2022/08/14 01:32:37;;;;;;;8.68;7.88;;;;;;;22.30;68.75;100325.03;688468;28;1346;-84
2022/08/14 01:32:57;;;;;;;8.52;7.72;;;;;;;22.28;68.04;100331.28;689203;28;1212;-86
2022/08/14 01:33:19;;;;;;;8.70;7.80;;;;;;;22.28;68.92;100330.44;691233;28;1249;-84
2022/08/14 01:33:45;;;;;;;9.07;7.75;;;;;;;22.25;68.41;100317.28;691102;28;4340;-84
2022/08/14 01:34:06;;;;;;;8.35;7.28;;;;;;;22.22;68.29;100317.47;691947;28;898;-83
2022/08/14 01:34:26;;;;;;;8.35;7.45;;;;;;;22.22;68.85;100315.69;686573;28;1358;-86
2022/08/14 01:34:52;;;;;;;8.38;7.57;;;;;;;22.23;68.82;100311.22;686422;28;1172;-84
2022/08/14 01:35:13;;;;;;;8.07;7.28;;;;;;;22.24;69.25;100324.44;685840;28;1244;-84
2022/08/14 01:35:33;;;;;;;8.50;7.70;;;;;;;22.21;68.76;100318.41;682745;28;1191;-87
2022/08/14 01:35:56;;;;;;;8.40;7.60;;;;;;;22.19;68.42;100312.34;686898;28;1262;-84
2022/08/14 01:36:22;;;;;;;8.57;7.68;;;;;;;22.26;68.45;100316.34;687409;28;1052;-83
2022/08/14 01:36:42;;;;;;;8.55;7.70;;;;;;;22.23;68.33;100317.38;691422;28;4292;-84
2022/08/14 01:37:03;;;;;;;8.63;7.83;;;;;;;22.19;68.08;100307.84;691096;28;1200;-85
2022/08/14 01:37:24;;;;;;;8.65;7.85;;;;;;;22.21;69.39;100316.63;689880;28;1279;-85
2022/08/14 01:37:48;;;;;;;8.25;7.45;;;;;;;22.20;68.75;100311.41;686644;28;1164;-87
2022/08/14 01:38:11;;;;;;;8.50;7.60;;;;;;;22.17;68.77;100327.56;686700;28;1228;-83
2022/08/14 01:38:33;;;;;;;8.57;7.78;;;;;;;22.16;69.42;100317.84;688934;28;1201;-85
2022/08/14 01:38:56;;;;;;;8.25;7.50;;;;;;;22.16;68.48;100307.19;688454;28;1307;-84
2022/08/14 01:39:17;;;;;;;8.57;7.68;;;;;;;22.15;69.18;100322.28;691251;28;1293;-84
2022/08/14 01:39:38;;;;;;;8.88;7.97;;;;;;;22.18;68.90;100313.28;691771;28;4267;-84
2022/08/14 01:40:00;;;;;;;8.60;7.70;;;;;;;22.12;70.37;100301.19;695204;28;1167;-86
2022/08/14 01:40:27;;;;;;;8.48;7.68;;;;;;;22.10;69.88;100306.59;694416;28;1289;-84
2022/08/14 01:40:48;;;;;;;8.70;7.80;;;;;;;22.08;69.95;100302.31;694094;28;1274;-85
2022/08/14 01:41:14;;;;;;;8.75;7.82;;;;;;;22.06;70.26;100307.72;695571;28;1330;-84
2022/08/14 01:41:39;;;;;;;8.82;7.93;;;;;;;22.07;69.52;100304.13;693007;28;1165;-84
2022/08/14 01:42:00;;;;;;;8.65;7.70;;;;;;;22.09;69.59;100293.41;694415;28;1364;-84
2022/08/14 01:42:20;;;;;;;8.50;7.70;;;;;;;22.11;69.40;100310.13;688032;28;1187;-85
2022/08/14 01:42:42;;;;;;;8.40;7.60;;;;;;;22.09;69.77;100310.22;690348;28;4283;-84
2022/08/14 01:43:06;;;;;;;8.55;7.68;;;;;;;22.09;68.95;100302.22;688721;28;1218;-84
2022/08/14 01:43:29;;;;;;;8.30;7.50;;;;;;;22.08;69.64;100303.19;691098;28;1342;-86
2022/08/14 01:43:59;;;;;;;8.48;7.68;;;;;;;22.14;69.42;100312.63;690414;28;1588;-84
2022/08/14 01:44:21;;;;;;;8.40;7.60;;;;;;;22.14;69.32;100315.28;688872;28;1300;-86
2022/08/14 01:44:41;;;;;;;8.50;7.70;;;;;;;22.12;69.33;100303.84;685998;28;4906;-84
2022/08/14 01:45:10;;;;;;;8.40;7.60;;;;;;;22.09;69.94;100294.25;691294;28;1276;-86
2022/08/14 01:45:30;;;;;;;8.40;7.60;;;;;;;22.10;68.64;100298.63;691022;28;4318;-84
2022/08/14 01:45:51;;;;;;;8.40;7.60;;;;;;;22.09;69.70;100299.56;692452;28;1910;-84
2022/08/14 01:46:12;;;;;;;8.65;7.85;;;;;;;22.10;69.82;100293.28;693740;28;1594;-85
2022/08/14 01:46:38;;;;;;;8.90;8.10;;;;;;;22.12;70.20;100298.53;686519;28;1254;-87
2022/08/14 01:47:02;;;;;;;8.68;7.88;;;;;;;22.08;69.74;100297.88;690089;28;1267;-84
2022/08/14 01:47:23;;;;;;;8.75;7.88;;;;;;;22.07;70.60;100288.16;687506;28;1168;-85
2022/08/14 01:47:43;;;;;;;8.40;7.60;;;;;;;22.04;70.01;100288.34;692441;28;1247;-85
2022/08/14 01:48:03;;;;;;;8.55;7.65;;;;;;;22.02;70.38;100297.38;691808;28;1041;-84
2022/08/14 01:48:24;;;;;;;8.53;7.63;;;;;;;22.06;69.83;100299.75;687068;28;1192;-84
2022/08/14 01:48:45;;;;;;;8.60;7.80;;;;;;;22.01;70.17;100296.50;684591;28;4294;-84
2022/08/14 01:49:10;;;;;;;8.80;7.90;;;;;;;22.05;69.45;100297.19;693276;28;1405;-84